Aigaion — SYMC — position and weather

sailwx.info

Track history (hours):
 
Tides and Currents Weather Stations Pressure Air Temp Water Temp Dewpoint Dewpoint Depression Visibility Wind Speed Wind Dir Waves Ship Positions

Aigaion

Last reported at 2017-Mar-20 10:33 UTC. Time now 2017-Mar-30 12:45 UTC.
Position N 38°08' E 122°25'.
Warning: this ship's position is 10 days out of date.

Length 289 m; draft 8.4 m.

Type: Cargo ship. MMSI: 240174000.

Date/timePositionNaut miles runAvg speedWind from/ knotsBaromVisibWave heightAir tempDewpointWater temp
2017-Mar-20 10:33N 38°08' E 122°25'1010.2
2017-Mar-20 09:32N 38°10' E 122°12'4010.0
2017-Mar-20 05:32N 38°22' E 121°24'1010.5
2017-Mar-20 04:33N 38°26' E 121°12'1111.0
2017-Mar-20 03:31N 38°31' E 120°59'2411.3
2017-Mar-20 01:22N 38°38' E 120°29'1110.9
2017-Mar-20 00:23N 38°42' E 120°16'  
2017-Mar-17 01:25N 38°29' E 121°16'9 8.5
2017-Mar-17 00:23N 38°27' E 121°27'7 8.6
2017-Mar-16 23:34N 38°24' E 121°36'9 8.8
2017-Mar-16 22:33N 38°22' E 121°47'  
Track history (hours):
 
Tides and Currents Weather Stations Pressure Air Temp Water Temp Dewpoint Dewpoint Depression Visibility Wind Speed Wind Dir Waves Ship Positions

Aigaion

Last reported at 2017-Mar-20 10:33 UTC. Time now 2017-Mar-30 12:45 UTC.
Position N 38°08' E 122°25'.
Warning: this ship's position is 10 days out of date.

Length 289 m; draft 8.4 m.

Type: Cargo ship. MMSI: 240174000.

Date/timePositionNaut miles runAvg speedWind from/ knotsBaromVisibWave heightAir tempDewpointWater temp
2017-Mar-20 10:33N 38°08' E 122°25'1010.2
2017-Mar-20 09:32N 38°10' E 122°12'4010.0
2017-Mar-20 05:32N 38°22' E 121°24'1010.5
2017-Mar-20 04:33N 38°26' E 121°12'1111.0
2017-Mar-20 03:31N 38°31' E 120°59'2411.3
2017-Mar-20 01:22N 38°38' E 120°29'1110.9
2017-Mar-20 00:23N 38°42' E 120°16'  
2017-Mar-17 01:25N 38°29' E 121°16'9 8.5
2017-Mar-17 00:23N 38°27' E 121°27'7 8.6
2017-Mar-16 23:34N 38°24' E 121°36'9 8.8
2017-Mar-16 22:33N 38°22' E 121°47'  

Dump ship's entire track history